UAL2312 KBOS-KSEA
Flight info
| Callsign | UAL2312 |
|---|---|
| Flight time | 5h 16m |
| Altitude | 40000 |
| Route | HYLND7 HYLND YOW SSM KP18K RUDVI MLP GLASR3 |
| Aircraft | B772/H-SDE2E3FGHIJ5LORVWXY/LB1D1 |
Departure
| Time | 2026-05-05 17:23 |
|---|---|
| Airport | Boston Logan International Airport (KBOS) |
Arrival
| Time | 2026-05-05 22:39 |
|---|---|
| Airport | Seattle–Tacoma International Airport (KSEA) |
| Time | Latitude | Longitude | Altitude | Speed | Heading |
|---|---|---|---|---|---|
| 2026-05-05 16:48 | 42.36227 | -71.02429 | 30 ft | 0 kts | 273° |
| 2026-05-05 17:04 | 42.36227 | -71.02421 | 29 ft | 4 kts | 274° |
| 2026-05-05 17:04 | 42.36223 | -71.02386 | 37 ft | 3 kts | 279° |
| 2026-05-05 17:04 | 42.36222 | -71.02355 | 25 ft | 4 kts | 245° |
| 2026-05-05 17:05 | 42.36238 | -71.02336 | 26 ft | 4 kts | 185° |
| 2026-05-05 17:05 | 42.36265 | -71.02337 | 26 ft | 4 kts | 173° |
| 2026-05-05 17:05 | 42.36290 | -71.02340 | 27 ft | 2 kts | 183° |
| 2026-05-05 17:05 | 42.36291 | -71.02340 | 27 ft | 0 kts | 184° |
| 2026-05-05 17:12 | 42.36271 | -71.02342 | 29 ft | 8 kts | 184° |
| 2026-05-05 17:12 | 42.36217 | -71.02347 | 28 ft | 8 kts | 184° |
| 2026-05-05 17:12 | 42.36162 | -71.02351 | 30 ft | 8 kts | 178° |
| 2026-05-05 17:12 | 42.36109 | -71.02333 | 29 ft | 8 kts | 159° |
| 2026-05-05 17:13 | 42.36060 | -71.02299 | 29 ft | 8 kts | 143° |
| 2026-05-05 17:13 | 42.36036 | -71.02258 | 29 ft | 2 kts | 124° |
| 2026-05-05 17:14 | 42.36033 | -71.02252 | 29 ft | 2 kts | 122° |
| 2026-05-05 17:14 | 42.36031 | -71.02248 | 29 ft | 2 kts | 121° |
| 2026-05-05 17:14 | 42.36008 | -71.02197 | 30 ft | 15 kts | 120° |
| 2026-05-05 17:14 | 42.35956 | -71.02074 | 30 ft | 15 kts | 121° |
| 2026-05-05 17:15 | 42.35900 | -71.01955 | 31 ft | 14 kts | 121° |
| 2026-05-05 17:15 | 42.35857 | -71.01843 | 32 ft | 12 kts | 109° |
| 2026-05-05 17:15 | 42.35838 | -71.01731 | 34 ft | 12 kts | 102° |
| 2026-05-05 17:15 | 42.35825 | -71.01619 | 34 ft | 12 kts | 82° |
| 2026-05-05 17:16 | 42.35890 | -71.01551 | 34 ft | 12 kts | 22° |
| 2026-05-05 17:16 | 42.35970 | -71.01510 | 33 ft | 12 kts | 20° |
| 2026-05-05 17:16 | 42.36064 | -71.01465 | 33 ft | 16 kts | 20° |
| 2026-05-05 17:16 | 42.36169 | -71.01414 | 32 ft | 16 kts | 19° |
| 2026-05-05 17:17 | 42.36274 | -71.01363 | 29 ft | 14 kts | 20° |
| 2026-05-05 17:17 | 42.36368 | -71.01317 | 29 ft | 14 kts | 19° |
| 2026-05-05 17:17 | 42.36463 | -71.01272 | 29 ft | 14 kts | 19° |
| 2026-05-05 17:17 | 42.36558 | -71.01227 | 30 ft | 14 kts | 19° |
| 2026-05-05 17:18 | 42.36653 | -71.01181 | 32 ft | 14 kts | 19° |
| 2026-05-05 17:18 | 42.36749 | -71.01144 | 31 ft | 14 kts | 2° |
| 2026-05-05 17:18 | 42.36830 | -71.01204 | 29 ft | 11 kts | 317° |
| 2026-05-05 17:18 | 42.36901 | -71.01204 | 29 ft | 11 kts | 31° |
| 2026-05-05 17:19 | 42.36972 | -71.01126 | 29 ft | 14 kts | 36° |
| 2026-05-05 17:19 | 42.37061 | -71.01063 | 27 ft | 14 kts | 25° |
| 2026-05-05 17:19 | 42.37151 | -71.01005 | 25 ft | 14 kts | 25° |
| 2026-05-05 17:19 | 42.37242 | -71.00946 | 26 ft | 15 kts | 26° |
| 2026-05-05 17:20 | 42.37354 | -71.00880 | 30 ft | 18 kts | 21° |
| 2026-05-05 17:20 | 42.37472 | -71.00824 | 28 ft | 18 kts | 19° |
| 2026-05-05 17:20 | 42.37590 | -71.00767 | 29 ft | 18 kts | 20° |
| 2026-05-05 17:20 | 42.37707 | -71.00709 | 33 ft | 17 kts | 19° |
| 2026-05-05 17:21 | 42.37787 | -71.00671 | 34 ft | 9 kts | 19° |
| 2026-05-05 17:21 | 42.37832 | -71.00620 | 33 ft | 8 kts | 67° |
| 2026-05-05 17:21 | 42.37835 | -71.00602 | 33 ft | 0 kts | 82° |
| 2026-05-05 17:22 | 42.37829 | -71.00537 | 32 ft | 16 kts | 104° |
| 2026-05-05 17:22 | 42.37732 | -71.00501 | 30 ft | 20 kts | 197° |
| 2026-05-05 17:22 | 42.37393 | -71.00662 | 28 ft | 90 kts | 199° |
| 2026-05-05 17:23 | 42.36566 | -71.01048 | 58 ft | 156 kts | 198° |
| 2026-05-05 17:23 | 42.35492 | -71.01562 | 766 ft | 164 kts | 199° |
| 2026-05-05 17:23 | 42.34453 | -71.01973 | 2058 ft | 147 kts | 195° |
| 2026-05-05 17:23 | 42.33440 | -71.01833 | 3018 ft | 166 kts | 155° |
| 2026-05-05 17:24 | 42.32641 | -71.00510 | 3515 ft | 197 kts | 126° |
| 2026-05-05 17:24 | 42.32038 | -70.98878 | 4508 ft | 194 kts | 127° |
| 2026-05-05 17:24 | 42.31405 | -70.97177 | 5020 ft | 222 kts | 126° |
| 2026-05-05 17:24 | 42.30675 | -70.95125 | 5210 ft | 262 kts | 110° |
| 2026-05-05 17:25 | 42.30701 | -70.92549 | 5554 ft | 283 kts | 78° |
| 2026-05-05 17:25 | 42.31220 | -70.90891 | 6008 ft | 287 kts | 57° |
| 2026-05-05 17:25 | 42.33055 | -70.88652 | 7558 ft | 250 kts | 41° |
| 2026-05-05 17:25 | 42.34054 | -70.86623 | 7802 ft | 276 kts | 70° |
| 2026-05-05 17:26 | 42.34572 | -70.84002 | 8004 ft | 298 kts | 87° |
| 2026-05-05 17:26 | 42.34830 | -70.80937 | 6738 ft | 362 kts | 87° |
| 2026-05-05 17:26 | 42.35175 | -70.77898 | 9069 ft | 296 kts | 77° |
| 2026-05-05 17:26 | 42.36042 | -70.75531 | 10634 ft | 271 kts | 44° |
| 2026-05-05 17:27 | 42.37473 | -70.73967 | 11352 ft | 266 kts | 25° |
| 2026-05-05 17:27 | 42.39165 | -70.72723 | 11572 ft | 288 kts | 20° |
| 2026-05-05 17:27 | 42.41099 | -70.71739 | 11786 ft | 306 kts | 8° |
| 2026-05-05 17:27 | 42.43253 | -70.71199 | 11970 ft | 323 kts | 357° |
| 2026-05-05 17:28 | 42.45519 | -70.71517 | 12157 ft | 335 kts | 336° |
| 2026-05-05 17:28 | 42.47632 | -70.72791 | 12531 ft | 341 kts | 326° |
| 2026-05-05 17:28 | 42.49785 | -70.74249 | 13274 ft | 350 kts | 328° |
| 2026-05-05 17:28 | 42.51931 | -70.75806 | 14043 ft | 349 kts | 320° |
| 2026-05-05 17:29 | 42.53789 | -70.77903 | 14745 ft | 348 kts | 308° |
| 2026-05-05 17:29 | 42.55324 | -70.80436 | 15495 ft | 347 kts | 299° |
| 2026-05-05 17:29 | 42.56668 | -70.83191 | 16204 ft | 353 kts | 298° |
| 2026-05-05 17:29 | 42.58024 | -70.86014 | 16935 ft | 359 kts | 298° |
| 2026-05-05 17:30 | 42.59383 | -70.88845 | 17700 ft | 364 kts | 298° |
| 2026-05-05 17:30 | 42.60778 | -70.91739 | 18483 ft | 367 kts | 298° |
| 2026-05-05 17:30 | 42.62191 | -70.94661 | 19146 ft | 372 kts | 298° |
| 2026-05-05 17:30 | 42.63627 | -70.97623 | 19757 ft | 378 kts | 298° |
| 2026-05-05 17:31 | 42.65088 | -71.00631 | 20376 ft | 383 kts | 298° |
| 2026-05-05 17:31 | 42.66568 | -71.03679 | 21000 ft | 388 kts | 298° |
| 2026-05-05 17:31 | 42.68047 | -71.06724 | 21625 ft | 393 kts | 298° |
| 2026-05-05 17:31 | 42.69562 | -71.09845 | 22237 ft | 398 kts | 298° |
| 2026-05-05 17:32 | 42.71101 | -71.13021 | 22852 ft | 404 kts | 298° |
| 2026-05-05 17:32 | 42.72654 | -71.16227 | 23498 ft | 409 kts | 298° |
| 2026-05-05 17:32 | 42.74226 | -71.19474 | 24079 ft | 412 kts | 299° |
| 2026-05-05 17:32 | 42.75804 | -71.22738 | 24730 ft | 414 kts | 299° |
| 2026-05-05 17:33 | 42.77389 | -71.26020 | 25350 ft | 415 kts | 299° |
| 2026-05-05 17:33 | 42.79078 | -71.29232 | 25957 ft | 421 kts | 304° |
| 2026-05-05 17:33 | 42.80965 | -71.32307 | 26516 ft | 424 kts | 306° |
| 2026-05-05 17:33 | 42.82896 | -71.35375 | 27069 ft | 428 kts | 307° |
| 2026-05-05 17:34 | 42.84824 | -71.38428 | 27603 ft | 431 kts | 307° |
| 2026-05-05 17:34 | 42.86788 | -71.41548 | 28167 ft | 433 kts | 307° |
| 2026-05-05 17:34 | 42.88755 | -71.44690 | 28683 ft | 436 kts | 307° |
| 2026-05-05 17:34 | 42.90731 | -71.47861 | 29149 ft | 439 kts | 306° |
| 2026-05-05 17:35 | 42.92712 | -71.51055 | 29636 ft | 442 kts | 306° |
| 2026-05-05 17:35 | 42.94699 | -71.54268 | 30086 ft | 444 kts | 306° |
| 2026-05-05 17:35 | 42.96691 | -71.57497 | 30556 ft | 444 kts | 306° |
| 2026-05-05 17:35 | 42.98653 | -71.60678 | 31098 ft | 443 kts | 306° |
| 2026-05-05 17:36 | 43.00641 | -71.63908 | 31539 ft | 444 kts | 306° |
| 2026-05-05 17:36 | 43.02631 | -71.67146 | 31882 ft | 446 kts | 306° |
| 2026-05-05 17:36 | 43.04632 | -71.70406 | 32212 ft | 449 kts | 306° |
| 2026-05-05 17:36 | 43.06646 | -71.73692 | 32536 ft | 450 kts | 307° |
| 2026-05-05 17:37 | 43.08664 | -71.76986 | 32840 ft | 452 kts | 307° |
| 2026-05-05 17:37 | 43.10005 | -71.79177 | 33080 ft | 453 kts | 307° |
| 2026-05-05 17:37 | 43.12714 | -71.83606 | 33554 ft | 453 kts | 307° |
| 2026-05-05 17:37 | 43.14729 | -71.86905 | 34010 ft | 450 kts | 307° |
| 2026-05-05 17:38 | 43.16710 | -71.90148 | 34434 ft | 448 kts | 306° |
| 2026-05-05 17:38 | 43.18692 | -71.93398 | 34957 ft | 442 kts | 306° |
| 2026-05-05 17:38 | 43.20659 | -71.96627 | 35341 ft | 440 kts | 306° |
| 2026-05-05 17:38 | 43.22621 | -71.99857 | 35584 ft | 442 kts | 305° |
| 2026-05-05 17:39 | 43.24589 | -72.03102 | 35818 ft | 443 kts | 305° |
| 2026-05-05 17:39 | 43.26555 | -72.06346 | 36069 ft | 443 kts | 306° |
| 2026-05-05 17:39 | 43.28527 | -72.09601 | 36319 ft | 443 kts | 305° |
| 2026-05-05 17:39 | 43.30493 | -72.12847 | 36663 ft | 441 kts | 305° |
| 2026-05-05 17:40 | 43.32459 | -72.16099 | 36968 ft | 441 kts | 305° |
| 2026-05-05 17:40 | 43.34416 | -72.19340 | 37218 ft | 441 kts | 305° |
| 2026-05-05 17:40 | 43.36372 | -72.22583 | 37478 ft | 441 kts | 305° |
| 2026-05-05 17:40 | 43.38327 | -72.25829 | 37764 ft | 440 kts | 304° |
| 2026-05-05 17:41 | 43.40281 | -72.29076 | 37995 ft | 441 kts | 304° |
| 2026-05-05 17:41 | 43.42234 | -72.32324 | 38243 ft | 440 kts | 304° |
| 2026-05-05 17:41 | 43.44185 | -72.35572 | 38473 ft | 440 kts | 304° |
| 2026-05-05 17:41 | 43.46109 | -72.38782 | 38641 ft | 440 kts | 304° |
| 2026-05-05 17:42 | 43.48057 | -72.42033 | 38839 ft | 440 kts | 304° |
| 2026-05-05 17:42 | 43.50004 | -72.45285 | 38992 ft | 441 kts | 304° |
| 2026-05-05 17:42 | 43.51957 | -72.48552 | 39153 ft | 441 kts | 304° |
| 2026-05-05 17:42 | 43.53909 | -72.51820 | 39306 ft | 441 kts | 304° |
| 2026-05-05 17:43 | 43.55856 | -72.55084 | 39496 ft | 441 kts | 304° |
| 2026-05-05 17:43 | 43.57805 | -72.58355 | 39617 ft | 442 kts | 304° |
| 2026-05-05 17:43 | 43.59762 | -72.61644 | 39690 ft | 444 kts | 304° |
| 2026-05-05 17:44 | 43.63693 | -72.68261 | 39738 ft | 446 kts | 304° |
| 2026-05-05 17:44 | 43.67613 | -72.74871 | 39754 ft | 444 kts | 304° |
| 2026-05-05 17:45 | 43.71502 | -72.81444 | 39750 ft | 444 kts | 304° |
| 2026-05-05 17:45 | 43.75413 | -72.88072 | 39742 ft | 444 kts | 304° |
| 2026-05-05 17:46 | 43.79317 | -72.94703 | 39734 ft | 444 kts | 303° |
| 2026-05-05 17:46 | 43.83192 | -73.01299 | 39727 ft | 445 kts | 303° |
| 2026-05-05 17:47 | 43.87088 | -73.07947 | 39717 ft | 445 kts | 303° |
| 2026-05-05 17:47 | 43.90987 | -73.14618 | 39707 ft | 445 kts | 303° |
| 2026-05-05 17:48 | 43.94887 | -73.21302 | 39738 ft | 445 kts | 303° |
| 2026-05-05 17:48 | 43.98785 | -73.27999 | 39712 ft | 445 kts | 303° |
| 2026-05-05 17:49 | 44.02652 | -73.34657 | 39700 ft | 445 kts | 303° |
| 2026-05-05 17:49 | 44.05901 | -73.40265 | 39697 ft | 444 kts | 303° |
| 2026-05-05 17:50 | 44.09747 | -73.46916 | 39688 ft | 443 kts | 303° |
| 2026-05-05 17:50 | 44.13600 | -73.53595 | 39697 ft | 441 kts | 303° |
| 2026-05-05 17:51 | 44.17434 | -73.60254 | 39707 ft | 439 kts | 303° |
| 2026-05-05 17:51 | 44.21246 | -73.66890 | 39726 ft | 437 kts | 303° |
| 2026-05-05 17:52 | 44.25034 | -73.73501 | 39730 ft | 435 kts | 303° |
| 2026-05-05 17:52 | 44.28808 | -73.80104 | 39736 ft | 434 kts | 303° |
| 2026-05-05 17:53 | 44.32546 | -73.86655 | 39704 ft | 434 kts | 303° |
| 2026-05-05 17:53 | 44.36302 | -73.93253 | 39677 ft | 433 kts | 303° |
| 2026-05-05 17:54 | 44.40046 | -73.99855 | 39710 ft | 432 kts | 302° |
| 2026-05-05 17:54 | 44.43772 | -74.06438 | 39735 ft | 431 kts | 302° |
| 2026-05-05 17:55 | 44.47465 | -74.12971 | 39728 ft | 430 kts | 302° |
| 2026-05-05 17:55 | 44.51168 | -74.19538 | 39713 ft | 428 kts | 302° |
| 2026-05-05 17:56 | 44.54855 | -74.26091 | 39701 ft | 427 kts | 302° |
| 2026-05-05 17:56 | 44.58534 | -74.32645 | 39706 ft | 426 kts | 302° |
| 2026-05-05 17:57 | 44.62178 | -74.39154 | 39688 ft | 425 kts | 302° |
| 2026-05-05 17:57 | 44.65827 | -74.45686 | 39685 ft | 425 kts | 301° |
| 2026-05-05 17:58 | 44.69480 | -74.52241 | 39684 ft | 425 kts | 301° |
| 2026-05-05 17:58 | 44.73124 | -74.58792 | 39698 ft | 425 kts | 301° |
| 2026-05-05 17:59 | 44.76747 | -74.65322 | 39681 ft | 426 kts | 301° |
| 2026-05-05 17:59 | 44.80408 | -74.71937 | 39663 ft | 428 kts | 301° |
| 2026-05-05 18:00 | 44.84076 | -74.78577 | 39665 ft | 429 kts | 301° |
| 2026-05-05 18:00 | 44.87720 | -74.85191 | 39661 ft | 430 kts | 301° |
| 2026-05-05 18:01 | 44.91391 | -74.91868 | 39657 ft | 431 kts | 301° |
| 2026-05-05 18:01 | 44.95071 | -74.98576 | 39660 ft | 432 kts | 301° |
| 2026-05-05 18:02 | 44.98748 | -75.05297 | 39665 ft | 433 kts | 301° |
| 2026-05-05 18:02 | 45.02439 | -75.12058 | 39634 ft | 434 kts | 301° |
| 2026-05-05 18:03 | 45.06121 | -75.18816 | 39614 ft | 434 kts | 301° |
| 2026-05-05 18:03 | 45.09782 | -75.25554 | 39612 ft | 434 kts | 301° |
| 2026-05-05 18:04 | 45.13456 | -75.32332 | 39621 ft | 434 kts | 300° |
| 2026-05-05 18:04 | 45.17123 | -75.39113 | 39602 ft | 433 kts | 300° |
| 2026-05-05 18:05 | 45.20782 | -75.45894 | 39618 ft | 431 kts | 300° |
| 2026-05-05 18:05 | 45.24398 | -75.52614 | 39612 ft | 430 kts | 300° |
| 2026-05-05 18:06 | 45.28047 | -75.59410 | 39649 ft | 430 kts | 300° |
| 2026-05-05 18:06 | 45.31643 | -75.66125 | 39625 ft | 429 kts | 300° |
| 2026-05-05 18:07 | 45.35258 | -75.72893 | 39612 ft | 428 kts | 300° |
| 2026-05-05 18:07 | 45.38854 | -75.79637 | 39621 ft | 427 kts | 300° |
| 2026-05-05 18:08 | 45.42320 | -75.86472 | 39604 ft | 421 kts | 292° |
| 2026-05-05 18:08 | 45.44712 | -75.93968 | 39588 ft | 414 kts | 283° |
| 2026-05-05 18:09 | 45.46129 | -76.01786 | 39597 ft | 410 kts | 277° |
| 2026-05-05 18:09 | 45.47314 | -76.09764 | 39574 ft | 411 kts | 277° |
| 2026-05-05 18:10 | 45.48498 | -76.17730 | 39586 ft | 410 kts | 277° |
| 2026-05-05 18:10 | 45.49691 | -76.25684 | 39580 ft | 410 kts | 277° |
| 2026-05-05 18:11 | 45.50877 | -76.33590 | 39144 ft | 405 kts | 282° |
| 2026-05-05 18:11 | 45.51461 | -76.37470 | 39934 ft | 395 kts | 277° |
| 2026-05-05 18:11 | 45.52041 | -76.41333 | 39771 ft | 401 kts | 277° |
| 2026-05-05 18:12 | 45.53212 | -76.49207 | 39668 ft | 410 kts | 277° |
| 2026-05-05 18:12 | 45.54400 | -76.57219 | 39600 ft | 414 kts | 277° |
| 2026-05-05 18:13 | 45.55591 | -76.65264 | 39615 ft | 414 kts | 276° |
| 2026-05-05 18:13 | 45.56775 | -76.73313 | 39608 ft | 414 kts | 276° |
| 2026-05-05 18:14 | 45.57944 | -76.81309 | 39609 ft | 414 kts | 276° |
| 2026-05-05 18:14 | 45.59117 | -76.89376 | 39601 ft | 413 kts | 276° |
| 2026-05-05 18:15 | 45.60281 | -76.97423 | 39606 ft | 414 kts | 276° |
| 2026-05-05 18:15 | 45.61439 | -77.05477 | 39619 ft | 414 kts | 276° |
| 2026-05-05 18:16 | 45.62586 | -77.13499 | 39626 ft | 415 kts | 276° |
| 2026-05-05 18:16 | 45.63738 | -77.21594 | 39624 ft | 416 kts | 276° |
| 2026-05-05 18:17 | 45.64887 | -77.29710 | 39627 ft | 416 kts | 276° |
| 2026-05-05 18:17 | 45.66032 | -77.37840 | 39636 ft | 417 kts | 276° |
| 2026-05-05 18:18 | 45.67165 | -77.45935 | 39648 ft | 418 kts | 276° |
| 2026-05-05 18:18 | 45.68304 | -77.54116 | 39648 ft | 419 kts | 276° |
| 2026-05-05 18:19 | 45.69438 | -77.62309 | 39649 ft | 420 kts | 276° |
| 2026-05-05 18:19 | 45.70568 | -77.70505 | 39664 ft | 420 kts | 276° |
| 2026-05-05 18:20 | 45.71693 | -77.78716 | 39655 ft | 420 kts | 276° |
| 2026-05-05 18:20 | 45.72804 | -77.86879 | 39657 ft | 420 kts | 276° |
| 2026-05-05 18:21 | 45.73916 | -77.95091 | 39655 ft | 419 kts | 276° |
| 2026-05-05 18:21 | 45.75021 | -78.03289 | 39655 ft | 419 kts | 276° |
| 2026-05-05 18:22 | 45.76118 | -78.11486 | 39663 ft | 419 kts | 276° |
| 2026-05-05 18:22 | 45.77203 | -78.19642 | 39671 ft | 420 kts | 276° |
| 2026-05-05 18:23 | 45.78292 | -78.27870 | 39675 ft | 421 kts | 276° |
| 2026-05-05 18:23 | 45.79378 | -78.36126 | 39669 ft | 422 kts | 276° |
| 2026-05-05 18:23 | 45.79920 | -78.40266 | 38921 ft | 422 kts | 276° |
| 2026-05-05 18:24 | 45.80456 | -78.44384 | 39064 ft | 416 kts | 280° |
| 2026-05-05 18:24 | 45.80985 | -78.48423 | 39880 ft | 411 kts | 276° |
| 2026-05-05 18:24 | 45.81507 | -78.52440 | 39796 ft | 415 kts | 275° |
| 2026-05-05 18:25 | 45.82569 | -78.60685 | 39733 ft | 424 kts | 276° |
| 2026-05-05 18:25 | 45.83643 | -78.69051 | 39689 ft | 427 kts | 276° |
| 2026-05-05 18:26 | 45.84717 | -78.77442 | 39693 ft | 427 kts | 276° |
| 2026-05-05 18:26 | 45.85783 | -78.85826 | 39689 ft | 427 kts | 276° |
| 2026-05-05 18:27 | 45.86836 | -78.94169 | 39704 ft | 427 kts | 276° |
| 2026-05-05 18:27 | 45.87889 | -79.02570 | 39699 ft | 428 kts | 276° |
| 2026-05-05 18:28 | 45.89458 | -79.15184 | 39696 ft | 428 kts | 276° |
| 2026-05-05 18:28 | 45.90498 | -79.23605 | 39698 ft | 428 kts | 276° |
| 2026-05-05 18:29 | 45.91532 | -79.32033 | 39708 ft | 429 kts | 276° |
| 2026-05-05 18:29 | 45.92555 | -79.40428 | 39709 ft | 429 kts | 276° |
| 2026-05-05 18:30 | 45.93579 | -79.48888 | 39711 ft | 429 kts | 276° |
| 2026-05-05 18:30 | 45.94597 | -79.57352 | 39708 ft | 430 kts | 276° |
| 2026-05-05 18:31 | 45.95603 | -79.65770 | 39709 ft | 430 kts | 276° |
| 2026-05-05 18:31 | 45.96610 | -79.74244 | 39717 ft | 430 kts | 276° |
| 2026-05-05 18:32 | 45.97612 | -79.82731 | 39710 ft | 431 kts | 276° |
| 2026-05-05 18:32 | 45.98607 | -79.91220 | 39716 ft | 431 kts | 276° |
| 2026-05-05 18:33 | 45.99597 | -79.99728 | 39714 ft | 431 kts | 276° |
| 2026-05-05 18:33 | 46.00580 | -80.08235 | 39730 ft | 431 kts | 276° |
| 2026-05-05 18:34 | 46.01554 | -80.16723 | 39725 ft | 432 kts | 276° |
| 2026-05-05 18:34 | 46.02531 | -80.25283 | 39721 ft | 433 kts | 276° |
| 2026-05-05 18:35 | 46.03501 | -80.33841 | 39720 ft | 434 kts | 276° |
| 2026-05-05 18:35 | 46.04467 | -80.42434 | 39721 ft | 434 kts | 276° |
| 2026-05-05 18:36 | 46.05428 | -80.51035 | 39737 ft | 435 kts | 276° |
| 2026-05-05 18:36 | 46.06376 | -80.59585 | 39725 ft | 435 kts | 276° |
| 2026-05-05 18:37 | 46.07324 | -80.68196 | 39725 ft | 435 kts | 276° |
| 2026-05-05 18:37 | 46.08266 | -80.76812 | 39731 ft | 435 kts | 276° |
| 2026-05-05 18:38 | 46.09200 | -80.85412 | 39744 ft | 434 kts | 276° |
| 2026-05-05 18:38 | 46.10127 | -80.94015 | 39734 ft | 434 kts | 276° |
| 2026-05-05 18:39 | 46.11039 | -81.02540 | 39729 ft | 433 kts | 276° |
| 2026-05-05 18:39 | 46.11951 | -81.11123 | 39722 ft | 432 kts | 276° |
| 2026-05-05 18:40 | 46.12703 | -81.18251 | 39723 ft | 431 kts | 276° |
| 2026-05-05 18:40 | 46.13598 | -81.26801 | 39739 ft | 430 kts | 276° |
| 2026-05-05 18:41 | 46.14485 | -81.35327 | 39725 ft | 430 kts | 276° |
| 2026-05-05 18:41 | 46.15364 | -81.43845 | 39742 ft | 429 kts | 276° |
| 2026-05-05 18:42 | 46.16231 | -81.52302 | 39722 ft | 428 kts | 276° |
| 2026-05-05 18:42 | 46.17095 | -81.60808 | 39724 ft | 428 kts | 276° |
| 2026-05-05 18:43 | 46.17954 | -81.69323 | 39734 ft | 428 kts | 276° |
| 2026-05-05 18:43 | 46.18805 | -81.77824 | 39728 ft | 428 kts | 276° |
| 2026-05-05 18:44 | 46.19652 | -81.86350 | 39733 ft | 428 kts | 276° |
| 2026-05-05 18:44 | 46.20492 | -81.94877 | 39742 ft | 429 kts | 276° |
| 2026-05-05 18:45 | 46.21322 | -82.03355 | 39737 ft | 429 kts | 276° |
| 2026-05-05 18:45 | 46.22151 | -82.11900 | 39743 ft | 429 kts | 275° |
| 2026-05-05 18:46 | 46.22972 | -82.20434 | 39739 ft | 429 kts | 275° |
| 2026-05-05 18:46 | 46.23788 | -82.28975 | 39746 ft | 429 kts | 275° |
| 2026-05-05 18:47 | 46.24598 | -82.37533 | 39734 ft | 429 kts | 275° |
| 2026-05-05 18:47 | 46.25398 | -82.46042 | 39740 ft | 430 kts | 275° |
| 2026-05-05 18:48 | 46.26195 | -82.54607 | 39746 ft | 430 kts | 275° |
| 2026-05-05 18:48 | 46.26987 | -82.63175 | 39745 ft | 430 kts | 275° |
| 2026-05-05 18:49 | 46.27773 | -82.71756 | 39753 ft | 430 kts | 275° |
| 2026-05-05 18:49 | 46.28553 | -82.80345 | 39773 ft | 430 kts | 275° |
| 2026-05-05 18:50 | 46.29326 | -82.88922 | 39756 ft | 430 kts | 275° |
| 2026-05-05 18:50 | 46.30088 | -82.97456 | 39764 ft | 430 kts | 275° |
| 2026-05-05 18:51 | 46.30848 | -83.06038 | 39763 ft | 430 kts | 275° |
| 2026-05-05 18:51 | 46.31600 | -83.14615 | 39768 ft | 429 kts | 275° |
| 2026-05-05 18:52 | 46.32346 | -83.23192 | 39776 ft | 429 kts | 275° |
| 2026-05-05 18:52 | 46.33080 | -83.31702 | 39768 ft | 429 kts | 275° |
| 2026-05-05 18:53 | 46.33812 | -83.40271 | 39769 ft | 428 kts | 275° |
| 2026-05-05 18:53 | 46.34537 | -83.48831 | 39764 ft | 428 kts | 275° |
| 2026-05-05 18:54 | 46.35246 | -83.57240 | 39781 ft | 422 kts | 275° |
| 2026-05-05 18:54 | 46.35948 | -83.65730 | 39777 ft | 427 kts | 275° |
| 2026-05-05 18:55 | 46.36654 | -83.74303 | 39772 ft | 429 kts | 275° |
| 2026-05-05 18:55 | 46.37356 | -83.82896 | 39766 ft | 430 kts | 275° |
| 2026-05-05 18:56 | 46.38052 | -83.91496 | 39768 ft | 430 kts | 275° |
| 2026-05-05 18:56 | 46.38741 | -84.00093 | 39778 ft | 429 kts | 275° |
| 2026-05-05 18:57 | 46.39422 | -84.08681 | 39772 ft | 429 kts | 275° |
| 2026-05-05 18:57 | 46.40092 | -84.17198 | 39769 ft | 428 kts | 275° |
| 2026-05-05 18:58 | 46.40783 | -84.25746 | 39777 ft | 427 kts | 277° |
| 2026-05-05 18:58 | 46.42231 | -84.34118 | 39780 ft | 429 kts | 285° |
| 2026-05-05 18:59 | 46.44445 | -84.42169 | 39785 ft | 432 kts | 290° |
| 2026-05-05 18:59 | 46.46946 | -84.50116 | 39781 ft | 433 kts | 291° |
| 2026-05-05 19:00 | 46.49451 | -84.58075 | 39767 ft | 434 kts | 291° |
| 2026-05-05 19:00 | 46.51919 | -84.66004 | 39782 ft | 434 kts | 290° |
| 2026-05-05 19:01 | 46.54390 | -84.74005 | 39786 ft | 434 kts | 290° |
| 2026-05-05 19:01 | 46.56855 | -84.82026 | 39780 ft | 435 kts | 290° |
| 2026-05-05 19:02 | 46.59315 | -84.90059 | 39790 ft | 435 kts | 290° |
| 2026-05-05 19:02 | 46.61770 | -84.98097 | 39800 ft | 435 kts | 290° |
| 2026-05-05 19:03 | 46.64218 | -85.06136 | 39816 ft | 435 kts | 290° |
| 2026-05-05 19:03 | 46.66662 | -85.14192 | 39806 ft | 435 kts | 290° |
| 2026-05-05 19:04 | 46.69100 | -85.22251 | 39815 ft | 435 kts | 290° |
| 2026-05-05 19:04 | 46.71518 | -85.30269 | 39818 ft | 435 kts | 290° |
| 2026-05-05 19:05 | 46.73948 | -85.38355 | 39821 ft | 435 kts | 290° |
| 2026-05-05 19:05 | 46.76372 | -85.46449 | 39825 ft | 435 kts | 290° |
| 2026-05-05 19:06 | 46.78790 | -85.54544 | 39809 ft | 435 kts | 290° |
| 2026-05-05 19:06 | 46.81203 | -85.62651 | 39815 ft | 435 kts | 290° |
| 2026-05-05 19:07 | 46.83590 | -85.70700 | 39814 ft | 434 kts | 290° |
| 2026-05-05 19:07 | 46.85989 | -85.78811 | 39813 ft | 434 kts | 290° |
| 2026-05-05 19:08 | 46.88381 | -85.86927 | 39811 ft | 434 kts | 290° |
| 2026-05-05 19:08 | 46.90768 | -85.95056 | 39831 ft | 435 kts | 290° |
| 2026-05-05 19:09 | 46.93141 | -86.03164 | 39823 ft | 436 kts | 290° |
| 2026-05-05 19:09 | 46.95529 | -86.11346 | 39823 ft | 437 kts | 290° |
| 2026-05-05 19:10 | 46.97914 | -86.19544 | 39821 ft | 438 kts | 290° |
| 2026-05-05 19:10 | 47.00293 | -86.27752 | 39819 ft | 438 kts | 290° |
| 2026-05-05 19:11 | 47.02659 | -86.35942 | 39819 ft | 439 kts | 290° |
| 2026-05-05 19:11 | 47.05036 | -86.44197 | 39820 ft | 439 kts | 290° |
| 2026-05-05 19:12 | 47.07409 | -86.52467 | 39819 ft | 439 kts | 289° |
| 2026-05-05 19:12 | 47.09759 | -86.60685 | 39819 ft | 439 kts | 289° |
| 2026-05-05 19:13 | 47.12120 | -86.68967 | 39819 ft | 439 kts | 289° |
| 2026-05-05 19:13 | 47.14475 | -86.77262 | 39832 ft | 440 kts | 290° |
| 2026-05-05 19:14 | 47.16828 | -86.85575 | 39821 ft | 441 kts | 289° |
| 2026-05-05 19:14 | 47.19179 | -86.93909 | 39819 ft | 441 kts | 289° |
| 2026-05-05 19:15 | 47.21508 | -87.02193 | 39815 ft | 441 kts | 289° |
| 2026-05-05 19:15 | 47.23847 | -87.10541 | 39815 ft | 441 kts | 289° |
| 2026-05-05 19:16 | 47.26185 | -87.18915 | 39814 ft | 442 kts | 289° |
| 2026-05-05 19:16 | 47.28519 | -87.27306 | 39811 ft | 442 kts | 289° |
| 2026-05-05 19:17 | 47.30846 | -87.35701 | 39811 ft | 442 kts | 289° |
| 2026-05-05 19:17 | 47.33153 | -87.44054 | 39814 ft | 443 kts | 289° |
| 2026-05-05 19:18 | 47.35470 | -87.52470 | 39818 ft | 443 kts | 289° |
| 2026-05-05 19:18 | 47.37785 | -87.60910 | 39817 ft | 444 kts | 289° |
| 2026-05-05 19:19 | 47.40094 | -87.69356 | 39812 ft | 444 kts | 289° |
| 2026-05-05 19:19 | 47.42399 | -87.77820 | 39812 ft | 444 kts | 289° |
| 2026-05-05 19:20 | 47.44699 | -87.86295 | 39811 ft | 444 kts | 289° |
| 2026-05-05 19:20 | 47.46992 | -87.94776 | 39809 ft | 444 kts | 289° |
| 2026-05-05 19:21 | 47.49265 | -88.03212 | 39816 ft | 444 kts | 289° |
| 2026-05-05 19:21 | 47.51554 | -88.11737 | 39812 ft | 444 kts | 289° |
| 2026-05-05 19:22 | 47.53818 | -88.20200 | 39808 ft | 445 kts | 289° |
| 2026-05-05 19:22 | 47.56090 | -88.28725 | 39811 ft | 445 kts | 289° |
| 2026-05-05 19:23 | 47.58354 | -88.37252 | 39843 ft | 445 kts | 289° |
| 2026-05-05 19:23 | 47.60616 | -88.45800 | 39824 ft | 446 kts | 289° |
| 2026-05-05 19:24 | 47.62871 | -88.54357 | 39815 ft | 446 kts | 289° |
| 2026-05-05 19:24 | 47.65129 | -88.62952 | 39814 ft | 447 kts | 289° |
| 2026-05-05 19:25 | 47.67379 | -88.71552 | 39819 ft | 447 kts | 289° |
| 2026-05-05 19:25 | 47.69621 | -88.80154 | 39814 ft | 447 kts | 289° |
| 2026-05-05 19:26 | 47.71846 | -88.88719 | 39817 ft | 447 kts | 289° |
| 2026-05-05 19:26 | 47.74078 | -88.97346 | 39816 ft | 447 kts | 289° |
| 2026-05-05 19:27 | 47.76309 | -89.06000 | 39825 ft | 448 kts | 289° |
| 2026-05-05 19:27 | 47.78536 | -89.14671 | 39823 ft | 448 kts | 289° |
| 2026-05-05 19:28 | 47.80739 | -89.23281 | 39837 ft | 448 kts | 289° |
| 2026-05-05 19:28 | 47.82577 | -89.30491 | 39831 ft | 449 kts | 289° |
| 2026-05-05 19:29 | 47.84785 | -89.39183 | 39826 ft | 449 kts | 289° |
| 2026-05-05 19:29 | 47.86992 | -89.47901 | 39829 ft | 450 kts | 289° |
| 2026-05-05 19:30 | 47.89190 | -89.56622 | 39829 ft | 450 kts | 288° |
| 2026-05-05 19:30 | 47.91385 | -89.65360 | 39830 ft | 450 kts | 288° |
| 2026-05-05 19:31 | 47.93572 | -89.74103 | 39829 ft | 450 kts | 288° |
| 2026-05-05 19:31 | 47.95753 | -89.82857 | 39833 ft | 450 kts | 288° |
| 2026-05-05 19:32 | 47.97915 | -89.91561 | 39828 ft | 450 kts | 288° |
| 2026-05-05 19:32 | 48.00001 | -90.00367 | 39826 ft | 449 kts | 284° |
| 2026-05-05 19:33 | 48.01322 | -90.09443 | 39844 ft | 447 kts | 280° |
| 2026-05-05 19:33 | 48.02501 | -90.18584 | 39820 ft | 448 kts | 280° |
| 2026-05-05 19:34 | 48.03689 | -90.27736 | 39823 ft | 449 kts | 280° |
| 2026-05-05 19:35 | 48.05487 | -90.41506 | 39814 ft | 450 kts | 280° |
| 2026-05-05 19:35 | 48.06683 | -90.50708 | 39827 ft | 451 kts | 280° |
| 2026-05-05 19:36 | 48.07866 | -90.59865 | 39831 ft | 451 kts | 280° |
| 2026-05-05 19:36 | 48.09049 | -90.69090 | 39842 ft | 451 kts | 279° |
| 2026-05-05 19:37 | 48.10224 | -90.78318 | 39854 ft | 451 kts | 279° |
| 2026-05-05 19:37 | 48.11387 | -90.87513 | 39849 ft | 451 kts | 279° |
| 2026-05-05 19:38 | 48.12548 | -90.96753 | 39851 ft | 451 kts | 279° |
| 2026-05-05 19:38 | 48.13704 | -91.06012 | 39854 ft | 452 kts | 279° |
| 2026-05-05 19:39 | 48.14845 | -91.15221 | 39866 ft | 452 kts | 279° |
| 2026-05-05 19:39 | 48.15985 | -91.24488 | 39858 ft | 452 kts | 279° |
| 2026-05-05 19:40 | 48.17111 | -91.33701 | 39855 ft | 452 kts | 279° |
| 2026-05-05 19:40 | 48.18236 | -91.42969 | 39861 ft | 452 kts | 279° |
| 2026-05-05 19:41 | 48.19356 | -91.52263 | 39869 ft | 452 kts | 279° |
| 2026-05-05 19:41 | 48.20467 | -91.61551 | 39863 ft | 452 kts | 279° |
| 2026-05-05 19:42 | 48.21565 | -91.70788 | 39869 ft | 453 kts | 279° |
| 2026-05-05 19:42 | 48.22664 | -91.80117 | 39873 ft | 454 kts | 279° |
| 2026-05-05 19:43 | 48.23758 | -91.89458 | 39876 ft | 455 kts | 279° |
| 2026-05-05 19:43 | 48.24840 | -91.98768 | 39878 ft | 456 kts | 279° |
| 2026-05-05 19:44 | 48.25921 | -92.08140 | 39886 ft | 456 kts | 279° |
| 2026-05-05 19:44 | 48.26997 | -92.17537 | 39881 ft | 457 kts | 279° |
| 2026-05-05 19:45 | 48.28067 | -92.26948 | 39894 ft | 457 kts | 279° |
| 2026-05-05 19:45 | 48.29130 | -92.36381 | 39893 ft | 458 kts | 279° |
| 2026-05-05 19:46 | 48.30186 | -92.45812 | 39896 ft | 458 kts | 279° |
| 2026-05-05 19:46 | 48.31236 | -92.55270 | 39895 ft | 458 kts | 279° |
| 2026-05-05 19:47 | 48.32270 | -92.64652 | 39900 ft | 458 kts | 279° |
| 2026-05-05 19:47 | 48.33302 | -92.74096 | 39897 ft | 458 kts | 279° |
| 2026-05-05 19:48 | 48.34326 | -92.83541 | 39908 ft | 457 kts | 278° |
| 2026-05-05 19:48 | 48.35342 | -92.92978 | 39905 ft | 457 kts | 278° |
| 2026-05-05 19:49 | 48.36351 | -93.02432 | 39901 ft | 457 kts | 278° |
| 2026-05-05 19:49 | 48.37347 | -93.11842 | 39918 ft | 460 kts | 278° |
| 2026-05-05 19:50 | 48.38352 | -93.21411 | 39914 ft | 465 kts | 278° |
| 2026-05-05 19:50 | 48.39359 | -93.31087 | 39922 ft | 470 kts | 278° |
| 2026-05-05 19:51 | 48.40369 | -93.40871 | 39921 ft | 475 kts | 278° |
| 2026-05-05 19:51 | 48.41372 | -93.50668 | 39928 ft | 478 kts | 278° |
| 2026-05-05 19:52 | 48.42380 | -93.60602 | 39929 ft | 481 kts | 278° |
| 2026-05-05 19:52 | 48.43386 | -93.70600 | 39931 ft | 483 kts | 278° |
| 2026-05-05 19:53 | 48.44383 | -93.80608 | 39936 ft | 483 kts | 278° |
| 2026-05-05 19:53 | 48.45373 | -93.90629 | 39936 ft | 483 kts | 278° |
| 2026-05-05 19:54 | 48.46352 | -94.00642 | 39938 ft | 482 kts | 278° |
| 2026-05-05 19:54 | 48.47322 | -94.10644 | 39937 ft | 481 kts | 278° |
| 2026-05-05 19:55 | 48.48280 | -94.20622 | 39939 ft | 480 kts | 278° |
| 2026-05-05 19:55 | 48.49228 | -94.30586 | 39941 ft | 480 kts | 278° |
| 2026-05-05 19:55 | 48.49698 | -94.35564 | 38498 ft | 480 kts | 278° |
| 2026-05-05 19:56 | 48.50164 | -94.40512 | 40126 ft | 471 kts | 278° |
| 2026-05-05 19:56 | 48.51075 | -94.50281 | 40036 ft | 476 kts | 278° |
| 2026-05-05 19:57 | 48.51995 | -94.60229 | 39774 ft | 481 kts | 278° |
| 2026-05-05 19:57 | 48.52912 | -94.70244 | 39951 ft | 483 kts | 278° |
| 2026-05-05 19:58 | 48.53817 | -94.80226 | 39962 ft | 483 kts | 278° |
| 2026-05-05 19:58 | 48.54720 | -94.90281 | 39961 ft | 483 kts | 278° |
| 2026-05-05 19:59 | 48.55613 | -95.00337 | 39958 ft | 484 kts | 278° |
| 2026-05-05 19:59 | 48.56500 | -95.10413 | 39965 ft | 484 kts | 278° |
| 2026-05-05 20:00 | 48.57378 | -95.20499 | 39963 ft | 484 kts | 278° |
| 2026-05-05 20:00 | 48.58244 | -95.30557 | 39963 ft | 483 kts | 278° |
| 2026-05-05 20:01 | 48.59102 | -95.40612 | 39974 ft | 482 kts | 277° |
| 2026-05-05 20:01 | 48.59944 | -95.50599 | 39972 ft | 482 kts | 277° |
| 2026-05-05 20:02 | 48.60784 | -95.60655 | 39967 ft | 482 kts | 277° |
| 2026-05-05 20:02 | 48.61200 | -95.65679 | 39843 ft | 482 kts | 277° |
| 2026-05-05 20:02 | 48.61614 | -95.70710 | 39843 ft | 482 kts | 277° |
| 2026-05-05 20:03 | 48.62435 | -95.80764 | 39850 ft | 482 kts | 277° |
| 2026-05-05 20:03 | 48.63249 | -95.90837 | 39870 ft | 482 kts | 277° |
| 2026-05-05 20:04 | 48.64048 | -96.00845 | 39901 ft | 482 kts | 277° |
| 2026-05-05 20:04 | 48.64845 | -96.10935 | 39955 ft | 482 kts | 277° |
| 2026-05-05 20:04 | 48.65240 | -96.15975 | 38509 ft | 482 kts | 277° |
| 2026-05-05 20:05 | 48.65630 | -96.20973 | 38724 ft | 473 kts | 276° |
| 2026-05-05 20:05 | 48.66010 | -96.25882 | 40309 ft | 467 kts | 277° |
| 2026-05-05 20:05 | 48.66388 | -96.30805 | 40154 ft | 473 kts | 277° |
| 2026-05-05 20:06 | 48.67149 | -96.40774 | 40045 ft | 480 kts | 277° |
| 2026-05-05 20:06 | 48.67925 | -96.50839 | 39993 ft | 483 kts | 277° |
| 2026-05-05 20:07 | 48.68665 | -96.60952 | 39981 ft | 483 kts | 277° |
| 2026-05-05 20:07 | 48.69045 | -96.66065 | 38678 ft | 490 kts | 277° |
| 2026-05-05 20:07 | 48.69431 | -96.71041 | 38927 ft | 475 kts | 277° |
| 2026-05-05 20:07 | 48.69792 | -96.75980 | 39131 ft | 471 kts | 277° |
| 2026-05-05 20:08 | 48.70142 | -96.80895 | 39348 ft | 468 kts | 277° |
| 2026-05-05 20:08 | 48.70486 | -96.85779 | 39574 ft | 466 kts | 277° |
| 2026-05-05 20:08 | 48.70829 | -96.90657 | 39765 ft | 464 kts | 277° |
| 2026-05-05 20:08 | 48.71171 | -96.95521 | 39871 ft | 465 kts | 277° |
| 2026-05-05 20:09 | 48.71515 | -97.00403 | 39921 ft | 467 kts | 277° |
| 2026-05-05 20:09 | 48.72199 | -97.10154 | 40000 ft | 471 kts | 277° |
| 2026-05-05 20:10 | 48.72887 | -97.20065 | 40005 ft | 475 kts | 277° |
| 2026-05-05 20:10 | 48.73573 | -97.30087 | 40002 ft | 479 kts | 277° |
| 2026-05-05 20:11 | 48.74253 | -97.40168 | 39992 ft | 482 kts | 277° |
| 2026-05-05 20:11 | 48.74929 | -97.50311 | 39977 ft | 484 kts | 276° |
| 2026-05-05 20:12 | 48.75593 | -97.60422 | 39978 ft | 485 kts | 276° |
| 2026-05-05 20:12 | 48.76253 | -97.70599 | 39977 ft | 484 kts | 276° |
| 2026-05-05 20:13 | 48.76902 | -97.80755 | 39972 ft | 483 kts | 276° |
| 2026-05-05 20:13 | 48.77536 | -97.90812 | 39967 ft | 482 kts | 276° |
| 2026-05-05 20:14 | 48.78164 | -98.00916 | 39969 ft | 481 kts | 276° |
| 2026-05-05 20:14 | 48.78784 | -98.11020 | 39978 ft | 480 kts | 276° |
| 2026-05-05 20:15 | 48.79393 | -98.21102 | 39988 ft | 480 kts | 276° |
| 2026-05-05 20:15 | 48.79994 | -98.31213 | 39988 ft | 481 kts | 276° |
| 2026-05-05 20:16 | 48.80585 | -98.41295 | 39990 ft | 482 kts | 276° |
| 2026-05-05 20:16 | 48.81073 | -98.49731 | 39990 ft | 482 kts | 276° |
| 2026-05-05 20:17 | 48.81651 | -98.59882 | 39989 ft | 483 kts | 276° |
| 2026-05-05 20:17 | 48.82221 | -98.70043 | 39980 ft | 483 kts | 276° |
| 2026-05-05 20:18 | 48.82870 | -98.81815 | 39993 ft | 475 kts | 276° |
| 2026-05-05 20:18 | 48.83314 | -98.90040 | 39964 ft | 461 kts | 276° |
| 2026-05-05 20:19 | 48.83831 | -98.99688 | 39988 ft | 462 kts | 276° |
| 2026-05-05 20:19 | 48.84345 | -99.09433 | 39979 ft | 464 kts | 276° |
| 2026-05-05 20:20 | 48.84853 | -99.19229 | 39977 ft | 466 kts | 276° |
| 2026-05-05 20:20 | 48.85350 | -99.29001 | 39965 ft | 467 kts | 276° |
| 2026-05-05 20:21 | 48.85843 | -99.38850 | 39974 ft | 468 kts | 276° |
| 2026-05-05 20:21 | 48.86328 | -99.48722 | 39971 ft | 468 kts | 276° |
| 2026-05-05 20:22 | 48.86806 | -99.58601 | 39975 ft | 469 kts | 276° |
| 2026-05-05 20:22 | 48.87275 | -99.68487 | 39955 ft | 468 kts | 276° |
| 2026-05-05 20:23 | 48.87731 | -99.78287 | 39965 ft | 468 kts | 275° |
| 2026-05-05 20:23 | 48.88182 | -99.88154 | 39980 ft | 468 kts | 275° |
| 2026-05-05 20:24 | 48.88626 | -99.98031 | 39970 ft | 469 kts | 275° |
| 2026-05-05 20:24 | 48.89060 | -100.07878 | 39969 ft | 469 kts | 275° |
| 2026-05-05 20:25 | 48.89490 | -100.17839 | 39957 ft | 469 kts | 275° |
| 2026-05-05 20:25 | 48.89905 | -100.27673 | 39966 ft | 469 kts | 275° |
| 2026-05-05 20:26 | 48.90316 | -100.37596 | 39970 ft | 470 kts | 275° |
| 2026-05-05 20:26 | 48.90719 | -100.47511 | 39966 ft | 470 kts | 275° |
| 2026-05-05 20:27 | 48.91112 | -100.57424 | 39956 ft | 470 kts | 275° |
| 2026-05-05 20:27 | 48.91496 | -100.67303 | 39966 ft | 470 kts | 275° |
| 2026-05-05 20:28 | 48.91873 | -100.77227 | 39972 ft | 470 kts | 275° |
| 2026-05-05 20:28 | 48.92241 | -100.87153 | 39970 ft | 470 kts | 275° |
| 2026-05-05 20:29 | 48.92601 | -100.97071 | 39979 ft | 470 kts | 275° |
| 2026-05-05 20:29 | 48.92952 | -101.06999 | 39959 ft | 470 kts | 275° |
| 2026-05-05 20:30 | 48.93295 | -101.16922 | 39974 ft | 470 kts | 275° |
| 2026-05-05 20:30 | 48.93627 | -101.26792 | 39973 ft | 470 kts | 275° |
| 2026-05-05 20:31 | 48.93953 | -101.36718 | 39978 ft | 470 kts | 275° |
| 2026-05-05 20:31 | 48.94271 | -101.46665 | 39972 ft | 470 kts | 275° |
| 2026-05-05 20:32 | 48.94580 | -101.56609 | 39979 ft | 470 kts | 275° |
| 2026-05-05 20:32 | 48.94880 | -101.66556 | 39974 ft | 471 kts | 275° |
| 2026-05-05 20:33 | 48.95173 | -101.76513 | 39973 ft | 472 kts | 275° |
| 2026-05-05 20:33 | 48.95457 | -101.86502 | 39969 ft | 472 kts | 275° |
| 2026-05-05 20:34 | 48.95732 | -101.96439 | 39951 ft | 472 kts | 275° |
| 2026-05-05 20:34 | 48.95999 | -102.06421 | 39966 ft | 472 kts | 275° |
| 2026-05-05 20:35 | 48.96258 | -102.16416 | 39969 ft | 472 kts | 275° |
| 2026-05-05 20:35 | 48.96508 | -102.26407 | 39980 ft | 472 kts | 274° |
| 2026-05-05 20:36 | 48.96749 | -102.36394 | 39976 ft | 472 kts | 274° |
| 2026-05-05 20:36 | 48.96982 | -102.46380 | 39968 ft | 472 kts | 274° |
| 2026-05-05 20:37 | 48.97205 | -102.56330 | 39978 ft | 472 kts | 274° |
| 2026-05-05 20:37 | 48.97420 | -102.66315 | 39995 ft | 472 kts | 274° |
| 2026-05-05 20:38 | 48.97627 | -102.76313 | 40016 ft | 472 kts | 274° |
| 2026-05-05 20:38 | 48.97826 | -102.86326 | 40017 ft | 473 kts | 274° |
| 2026-05-05 20:39 | 48.98015 | -102.96262 | 40027 ft | 473 kts | 274° |
| 2026-05-05 20:39 | 48.98196 | -103.06272 | 40027 ft | 473 kts | 274° |
| 2026-05-05 20:39 | 48.98283 | -103.11288 | 39748 ft | 473 kts | 274° |
| 2026-05-05 20:40 | 48.98369 | -103.16257 | 40069 ft | 468 kts | 274° |
| 2026-05-05 20:40 | 48.98532 | -103.26212 | 40018 ft | 472 kts | 274° |
| 2026-05-05 20:41 | 48.98687 | -103.36200 | 40106 ft | 477 kts | 274° |
| 2026-05-05 20:41 | 48.98837 | -103.46390 | 40120 ft | 483 kts | 274° |
| 2026-05-05 20:42 | 48.98979 | -103.56677 | 40128 ft | 488 kts | 274° |
| 2026-05-05 20:42 | 48.99113 | -103.67067 | 40124 ft | 492 kts | 273° |
| 2026-05-05 20:43 | 48.99237 | -103.77465 | 40110 ft | 495 kts | 273° |
| 2026-05-05 20:43 | 48.99352 | -103.87945 | 40125 ft | 496 kts | 273° |
| 2026-05-05 20:44 | 48.99459 | -103.98466 | 40127 ft | 496 kts | 273° |
| 2026-05-05 20:44 | 48.99556 | -104.08993 | 40121 ft | 496 kts | 273° |
| 2026-05-05 20:45 | 48.99683 | -104.24688 | 40100 ft | 494 kts | 273° |
| 2026-05-05 20:45 | 48.99756 | -104.35159 | 40102 ft | 493 kts | 273° |
| 2026-05-05 20:46 | 48.99820 | -104.45538 | 40098 ft | 493 kts | 273° |
| 2026-05-05 20:46 | 48.99874 | -104.55979 | 40097 ft | 492 kts | 273° |
| 2026-05-05 20:47 | 48.99919 | -104.66407 | 40085 ft | 492 kts | 273° |
| 2026-05-05 20:47 | 48.99954 | -104.76840 | 40108 ft | 492 kts | 273° |
| 2026-05-05 20:48 | 48.99981 | -104.87271 | 40124 ft | 492 kts | 273° |
| 2026-05-05 20:48 | 48.99992 | -104.97656 | 40133 ft | 493 kts | 272° |
| 2026-05-05 20:49 | 48.99331 | -105.08086 | 40147 ft | 497 kts | 264° |
| 2026-05-05 20:49 | 48.98274 | -105.18512 | 40144 ft | 498 kts | 264° |
| 2026-05-05 20:50 | 48.97208 | -105.28947 | 40145 ft | 499 kts | 264° |
| 2026-05-05 20:50 | 48.96165 | -105.39393 | 40138 ft | 499 kts | 264° |
| 2026-05-05 20:51 | 48.95133 | -105.49782 | 40149 ft | 500 kts | 264° |
| 2026-05-05 20:51 | 48.94089 | -105.60222 | 40138 ft | 499 kts | 265° |
| 2026-05-05 20:52 | 48.93033 | -105.70669 | 40156 ft | 499 kts | 265° |
| 2026-05-05 20:52 | 48.91967 | -105.81108 | 40162 ft | 499 kts | 264° |
| 2026-05-05 20:53 | 48.90899 | -105.91467 | 40162 ft | 499 kts | 264° |
| 2026-05-05 20:53 | 48.89814 | -106.01892 | 40150 ft | 499 kts | 265° |
| 2026-05-05 20:54 | 48.88720 | -106.12312 | 40160 ft | 498 kts | 265° |
| 2026-05-05 20:54 | 48.87617 | -106.22725 | 40166 ft | 499 kts | 265° |
| 2026-05-05 20:55 | 48.86505 | -106.33131 | 40163 ft | 499 kts | 264° |
| 2026-05-05 20:55 | 48.85389 | -106.43478 | 40146 ft | 499 kts | 265° |
| 2026-05-05 20:56 | 48.84255 | -106.53894 | 40164 ft | 499 kts | 264° |
| 2026-05-05 20:56 | 48.83114 | -106.64299 | 40166 ft | 500 kts | 264° |
| 2026-05-05 20:57 | 48.81963 | -106.74705 | 40169 ft | 500 kts | 264° |
| 2026-05-05 20:57 | 48.80801 | -106.85112 | 40152 ft | 500 kts | 264° |
| 2026-05-05 20:58 | 48.79638 | -106.95445 | 40175 ft | 500 kts | 264° |
| 2026-05-05 20:58 | 48.78454 | -107.05875 | 40175 ft | 501 kts | 264° |
| 2026-05-05 20:59 | 48.77260 | -107.16299 | 40177 ft | 501 kts | 264° |
| 2026-05-05 20:59 | 48.76059 | -107.26708 | 40181 ft | 501 kts | 264° |
| 2026-05-05 21:00 | 48.74856 | -107.37044 | 40183 ft | 501 kts | 264° |
| 2026-05-05 21:00 | 48.73635 | -107.47445 | 40186 ft | 501 kts | 264° |
| 2026-05-05 21:01 | 48.72404 | -107.57853 | 40185 ft | 501 kts | 264° |
| 2026-05-05 21:01 | 48.71164 | -107.68247 | 40160 ft | 501 kts | 264° |
| 2026-05-05 21:02 | 48.69915 | -107.78639 | 40175 ft | 501 kts | 264° |
| 2026-05-05 21:02 | 48.68665 | -107.88953 | 40183 ft | 501 kts | 264° |
| 2026-05-05 21:03 | 48.67396 | -107.99344 | 40183 ft | 502 kts | 264° |
| 2026-05-05 21:03 | 48.66117 | -108.09737 | 40185 ft | 502 kts | 264° |
| 2026-05-05 21:04 | 48.64826 | -108.20139 | 40187 ft | 502 kts | 264° |
| 2026-05-05 21:04 | 48.63535 | -108.30466 | 40179 ft | 502 kts | 264° |
| 2026-05-05 21:05 | 48.62229 | -108.40830 | 40181 ft | 502 kts | 263° |
| 2026-05-05 21:05 | 48.60913 | -108.51197 | 40170 ft | 502 kts | 263° |
| 2026-05-05 21:06 | 48.59586 | -108.61570 | 40168 ft | 502 kts | 264° |
| 2026-05-05 21:06 | 48.58479 | -108.70167 | 40167 ft | 502 kts | 264° |
| 2026-05-05 21:07 | 48.57138 | -108.80508 | 40172 ft | 502 kts | 263° |
| 2026-05-05 21:07 | 48.55568 | -108.92521 | 40163 ft | 502 kts | 263° |
| 2026-05-05 21:08 | 48.54206 | -109.02854 | 40159 ft | 502 kts | 264° |
| 2026-05-05 21:08 | 48.53059 | -109.11499 | 40168 ft | 502 kts | 264° |
| 2026-05-05 21:09 | 48.51680 | -109.21829 | 40179 ft | 502 kts | 263° |
| 2026-05-05 21:09 | 48.50300 | -109.32093 | 40171 ft | 502 kts | 263° |
| 2026-05-05 21:10 | 48.48901 | -109.42414 | 40176 ft | 502 kts | 264° |
| 2026-05-05 21:10 | 48.47495 | -109.52723 | 40183 ft | 502 kts | 264° |
| 2026-05-05 21:11 | 48.46079 | -109.63027 | 40188 ft | 502 kts | 264° |
| 2026-05-05 21:11 | 48.44655 | -109.73319 | 40191 ft | 502 kts | 263° |
| 2026-05-05 21:12 | 48.43222 | -109.83601 | 40183 ft | 501 kts | 264° |
| 2026-05-05 21:12 | 48.41780 | -109.93879 | 40188 ft | 501 kts | 264° |
| 2026-05-05 21:13 | 48.40341 | -110.04070 | 40196 ft | 501 kts | 264° |
| 2026-05-05 21:13 | 48.38874 | -110.14386 | 40201 ft | 501 kts | 263° |
| 2026-05-05 21:14 | 48.37414 | -110.24579 | 40192 ft | 501 kts | 264° |
| 2026-05-05 21:14 | 48.35936 | -110.34827 | 40196 ft | 501 kts | 263° |
| 2026-05-05 21:15 | 48.34449 | -110.45066 | 40199 ft | 501 kts | 263° |
| 2026-05-05 21:15 | 48.32963 | -110.55240 | 40197 ft | 501 kts | 263° |
| 2026-05-05 21:16 | 48.31455 | -110.65484 | 40179 ft | 501 kts | 264° |
| 2026-05-05 21:16 | 48.29943 | -110.75699 | 40192 ft | 501 kts | 264° |
| 2026-05-05 21:17 | 48.28422 | -110.85909 | 40193 ft | 501 kts | 264° |
| 2026-05-05 21:17 | 48.26890 | -110.96125 | 40191 ft | 502 kts | 263° |
| 2026-05-05 21:18 | 48.25346 | -111.06347 | 40182 ft | 502 kts | 264° |
| 2026-05-05 21:18 | 48.23795 | -111.16553 | 40193 ft | 502 kts | 264° |
| 2026-05-05 21:19 | 48.22233 | -111.26759 | 40192 ft | 502 kts | 264° |
| 2026-05-05 21:19 | 48.20674 | -111.36891 | 40192 ft | 501 kts | 263° |
| 2026-05-05 21:20 | 48.19095 | -111.47080 | 40189 ft | 501 kts | 263° |
| 2026-05-05 21:20 | 48.17511 | -111.57246 | 40190 ft | 501 kts | 263° |
| 2026-05-05 21:21 | 48.15917 | -111.67408 | 40188 ft | 501 kts | 263° |
| 2026-05-05 21:21 | 48.14314 | -111.77564 | 40191 ft | 501 kts | 263° |
| 2026-05-05 21:22 | 48.12703 | -111.87711 | 39665 ft | 503 kts | 264° |
| 2026-05-05 21:22 | 48.11898 | -111.92731 | 39990 ft | 494 kts | 264° |
| 2026-05-05 21:22 | 48.11099 | -111.97748 | 40057 ft | 494 kts | 264° |
| 2026-05-05 21:23 | 48.09495 | -112.07769 | 40176 ft | 496 kts | 263° |
| 2026-05-05 21:23 | 48.07875 | -112.17787 | 40188 ft | 500 kts | 263° |
| 2026-05-05 21:24 | 48.06226 | -112.27900 | 40163 ft | 501 kts | 263° |
| 2026-05-05 21:24 | 48.04569 | -112.37995 | 40190 ft | 499 kts | 263° |
| 2026-05-05 21:25 | 48.02910 | -112.48059 | 40189 ft | 497 kts | 263° |
| 2026-05-05 21:25 | 48.01249 | -112.58081 | 40209 ft | 496 kts | 263° |
| 2026-05-05 21:26 | 47.99585 | -112.68068 | 40189 ft | 495 kts | 263° |
| 2026-05-05 21:26 | 47.97945 | -112.77944 | 40216 ft | 494 kts | 263° |
| 2026-05-05 21:27 | 47.96257 | -112.87919 | 40199 ft | 495 kts | 263° |
| 2026-05-05 21:27 | 47.94569 | -112.97869 | 40217 ft | 496 kts | 263° |
| 2026-05-05 21:28 | 47.92858 | -113.07877 | 40193 ft | 499 kts | 263° |
| 2026-05-05 21:28 | 47.91134 | -113.17938 | 40191 ft | 502 kts | 263° |
| 2026-05-05 21:29 | 47.89393 | -113.28030 | 40187 ft | 498 kts | 263° |
| 2026-05-05 21:29 | 47.88529 | -113.32970 | 40147 ft | 485 kts | 263° |
| 2026-05-05 21:29 | 47.87679 | -113.37802 | 40148 ft | 478 kts | 263° |
| 2026-05-05 21:30 | 47.86019 | -113.47331 | 40098 ft | 475 kts | 264° |
| 2026-05-05 21:30 | 47.84367 | -113.56827 | 40118 ft | 477 kts | 264° |
| 2026-05-05 21:31 | 47.82686 | -113.66396 | 40116 ft | 479 kts | 264° |
| 2026-05-05 21:31 | 47.80987 | -113.75999 | 40127 ft | 480 kts | 263° |
| 2026-05-05 21:32 | 47.79268 | -113.85627 | 40055 ft | 482 kts | 264° |
| 2026-05-05 21:32 | 47.77535 | -113.95276 | 40084 ft | 482 kts | 264° |
| 2026-05-05 21:33 | 47.75796 | -114.04890 | 40087 ft | 480 kts | 264° |
| 2026-05-05 21:33 | 47.74071 | -114.14439 | 39490 ft | 478 kts | 263° |
| 2026-05-05 21:34 | 47.73217 | -114.19165 | 40264 ft | 470 kts | 261° |
| 2026-05-05 21:34 | 47.72358 | -114.23881 | 40165 ft | 475 kts | 264° |
| 2026-05-05 21:34 | 47.70630 | -114.33349 | 40065 ft | 479 kts | 264° |
| 2026-05-05 21:35 | 47.68871 | -114.42915 | 40056 ft | 481 kts | 264° |
| 2026-05-05 21:35 | 47.67094 | -114.52512 | 40079 ft | 482 kts | 264° |
| 2026-05-05 21:36 | 47.65319 | -114.62059 | 40042 ft | 483 kts | 263° |
| 2026-05-05 21:36 | 47.63524 | -114.71658 | 40026 ft | 482 kts | 263° |
| 2026-05-05 21:37 | 47.61725 | -114.81231 | 40019 ft | 481 kts | 263° |
| 2026-05-05 21:37 | 47.59938 | -114.90705 | 39999 ft | 478 kts | 263° |
| 2026-05-05 21:38 | 47.58142 | -115.00175 | 40000 ft | 476 kts | 263° |
| 2026-05-05 21:38 | 47.56340 | -115.09602 | 39971 ft | 473 kts | 263° |
| 2026-05-05 21:39 | 47.54547 | -115.18991 | 39959 ft | 475 kts | 263° |
| 2026-05-05 21:39 | 47.52752 | -115.28393 | 39972 ft | 475 kts | 263° |
| 2026-05-05 21:40 | 47.50930 | -115.37757 | 39937 ft | 477 kts | 263° |
| 2026-05-05 21:40 | 47.49091 | -115.47218 | 39938 ft | 479 kts | 263° |
| 2026-05-05 21:41 | 47.47243 | -115.56687 | 39927 ft | 480 kts | 262° |
| 2026-05-05 21:41 | 47.45679 | -115.66185 | 39911 ft | 463 kts | 277° |
| 2026-05-05 21:42 | 47.45858 | -115.70814 | 39932 ft | 447 kts | 285° |
| 2026-05-05 21:42 | 47.46203 | -115.75390 | 39916 ft | 448 kts | 285° |
| 2026-05-05 21:42 | 47.46882 | -115.84513 | 39875 ft | 450 kts | 284° |
| 2026-05-05 21:43 | 47.47491 | -115.93725 | 39917 ft | 451 kts | 284° |
| 2026-05-05 21:43 | 47.48060 | -116.02973 | 39686 ft | 452 kts | 280° |
| 2026-05-05 21:44 | 47.48340 | -116.07599 | 40053 ft | 447 kts | 278° |
| 2026-05-05 21:44 | 47.48602 | -116.12179 | 40018 ft | 449 kts | 284° |
| 2026-05-05 21:44 | 47.49143 | -116.21335 | 39957 ft | 449 kts | 283° |
| 2026-05-05 21:45 | 47.49671 | -116.30538 | 39953 ft | 449 kts | 283° |
| 2026-05-05 21:45 | 47.50192 | -116.39755 | 39967 ft | 450 kts | 283° |
| 2026-05-05 21:46 | 47.50714 | -116.49007 | 39967 ft | 451 kts | 283° |
| 2026-05-05 21:46 | 47.51228 | -116.58264 | 39976 ft | 449 kts | 283° |
| 2026-05-05 21:47 | 47.51716 | -116.67339 | 40000 ft | 438 kts | 283° |
| 2026-05-05 21:47 | 47.52198 | -116.76260 | 40001 ft | 438 kts | 283° |
| 2026-05-05 21:48 | 47.52678 | -116.85247 | 39982 ft | 437 kts | 283° |
| 2026-05-05 21:48 | 47.53148 | -116.94214 | 40008 ft | 437 kts | 282° |
| 2026-05-05 21:49 | 47.53612 | -117.03200 | 40014 ft | 438 kts | 282° |
| 2026-05-05 21:49 | 47.54069 | -117.12220 | 40002 ft | 439 kts | 282° |
| 2026-05-05 21:50 | 47.54518 | -117.21199 | 39997 ft | 441 kts | 282° |
| 2026-05-05 21:50 | 47.54961 | -117.30271 | 39995 ft | 441 kts | 282° |
| 2026-05-05 21:51 | 47.55398 | -117.39322 | 40014 ft | 440 kts | 282° |
| 2026-05-05 21:51 | 47.55828 | -117.48372 | 40006 ft | 440 kts | 282° |
| 2026-05-05 21:52 | 47.56460 | -117.61916 | 40006 ft | 440 kts | 282° |
| 2026-05-05 21:53 | 47.57149 | -117.70813 | 39996 ft | 435 kts | 286° |
| 2026-05-05 21:53 | 47.58062 | -117.79675 | 40001 ft | 434 kts | 286° |
| 2026-05-05 21:54 | 47.58959 | -117.88532 | 39982 ft | 434 kts | 286° |
| 2026-05-05 21:54 | 47.59814 | -117.97398 | 39958 ft | 435 kts | 285° |
| 2026-05-05 21:55 | 47.60642 | -118.06226 | 39955 ft | 435 kts | 285° |
| 2026-05-05 21:55 | 47.61463 | -118.15095 | 39938 ft | 435 kts | 285° |
| 2026-05-05 21:56 | 47.62142 | -118.22483 | 39938 ft | 434 kts | 285° |
| 2026-05-05 21:56 | 47.62953 | -118.31363 | 39942 ft | 434 kts | 285° |
| 2026-05-05 21:57 | 47.63757 | -118.40229 | 39920 ft | 434 kts | 285° |
| 2026-05-05 21:57 | 47.64554 | -118.49110 | 39934 ft | 435 kts | 285° |
| 2026-05-05 21:58 | 47.65348 | -118.58026 | 39935 ft | 436 kts | 285° |
| 2026-05-05 21:58 | 47.66131 | -118.66903 | 39935 ft | 437 kts | 285° |
| 2026-05-05 21:59 | 47.66912 | -118.75847 | 39928 ft | 437 kts | 285° |
| 2026-05-05 21:59 | 47.67685 | -118.84789 | 39924 ft | 437 kts | 285° |
| 2026-05-05 22:00 | 47.68452 | -118.93726 | 39909 ft | 436 kts | 285° |
| 2026-05-05 22:00 | 47.69209 | -119.02643 | 39939 ft | 435 kts | 285° |
| 2026-05-05 22:01 | 47.69956 | -119.11534 | 39923 ft | 431 kts | 285° |
| 2026-05-05 22:01 | 47.70322 | -119.15937 | 39652 ft | 426 kts | 285° |
| 2026-05-05 22:01 | 47.70680 | -119.20273 | 39301 ft | 421 kts | 285° |
| 2026-05-05 22:01 | 47.71037 | -119.24578 | 38920 ft | 418 kts | 285° |
| 2026-05-05 22:02 | 47.71385 | -119.28793 | 38488 ft | 415 kts | 285° |
| 2026-05-05 22:02 | 47.71734 | -119.33025 | 38040 ft | 411 kts | 285° |
| 2026-05-05 22:02 | 47.72077 | -119.37221 | 37638 ft | 408 kts | 285° |
| 2026-05-05 22:02 | 47.72418 | -119.41383 | 37246 ft | 404 kts | 285° |
| 2026-05-05 22:03 | 47.72752 | -119.45507 | 36841 ft | 400 kts | 284° |
| 2026-05-05 22:03 | 47.73084 | -119.49619 | 36485 ft | 403 kts | 284° |
| 2026-05-05 22:03 | 47.73427 | -119.53825 | 36100 ft | 416 kts | 284° |
| 2026-05-05 22:03 | 47.73776 | -119.58128 | 35693 ft | 420 kts | 284° |
| 2026-05-05 22:04 | 47.74115 | -119.62431 | 35258 ft | 418 kts | 284° |
| 2026-05-05 22:04 | 47.74447 | -119.66701 | 34842 ft | 415 kts | 283° |
| 2026-05-05 22:04 | 47.74777 | -119.70953 | 34419 ft | 413 kts | 283° |
| 2026-05-05 22:04 | 47.75104 | -119.75173 | 33977 ft | 411 kts | 283° |
| 2026-05-05 22:05 | 47.75431 | -119.79353 | 33371 ft | 412 kts | 283° |
| 2026-05-05 22:05 | 47.75758 | -119.83575 | 32930 ft | 409 kts | 283° |
| 2026-05-05 22:05 | 47.76081 | -119.87764 | 32490 ft | 406 kts | 283° |
| 2026-05-05 22:05 | 47.76399 | -119.91928 | 32079 ft | 403 kts | 283° |
| 2026-05-05 22:06 | 47.76715 | -119.96053 | 31630 ft | 400 kts | 283° |
| 2026-05-05 22:06 | 47.77026 | -120.00153 | 31257 ft | 397 kts | 282° |
| 2026-05-05 22:06 | 47.77335 | -120.04224 | 30867 ft | 395 kts | 282° |
| 2026-05-05 22:06 | 47.77640 | -120.08228 | 30471 ft | 393 kts | 282° |
| 2026-05-05 22:07 | 47.77940 | -120.12249 | 30088 ft | 390 kts | 282° |
| 2026-05-05 22:07 | 47.78237 | -120.16244 | 29650 ft | 386 kts | 282° |
| 2026-05-05 22:07 | 47.78530 | -120.20206 | 29211 ft | 385 kts | 282° |
| 2026-05-05 22:07 | 47.78820 | -120.24160 | 28768 ft | 384 kts | 283° |
| 2026-05-05 22:08 | 47.79113 | -120.28105 | 28307 ft | 384 kts | 282° |
| 2026-05-05 22:08 | 47.79400 | -120.32044 | 27890 ft | 382 kts | 282° |
| 2026-05-05 22:08 | 47.79684 | -120.35965 | 27459 ft | 380 kts | 283° |
| 2026-05-05 22:08 | 47.79965 | -120.39863 | 27024 ft | 378 kts | 282° |
| 2026-05-05 22:09 | 47.80250 | -120.43763 | 26537 ft | 380 kts | 282° |
| 2026-05-05 22:09 | 47.80527 | -120.47649 | 26199 ft | 376 kts | 282° |
| 2026-05-05 22:09 | 47.80804 | -120.51493 | 25783 ft | 373 kts | 283° |
| 2026-05-05 22:09 | 47.81074 | -120.55322 | 25393 ft | 371 kts | 283° |
| 2026-05-05 22:10 | 47.81342 | -120.59137 | 24978 ft | 370 kts | 283° |
| 2026-05-05 22:10 | 47.81610 | -120.62940 | 24595 ft | 368 kts | 283° |
| 2026-05-05 22:10 | 47.81875 | -120.66723 | 24206 ft | 367 kts | 283° |
| 2026-05-05 22:10 | 47.82141 | -120.70495 | 23789 ft | 365 kts | 283° |
| 2026-05-05 22:11 | 47.82398 | -120.74196 | 23388 ft | 363 kts | 283° |
| 2026-05-05 22:11 | 47.82655 | -120.77930 | 22940 ft | 362 kts | 283° |
| 2026-05-05 22:11 | 47.82910 | -120.81644 | 22524 ft | 359 kts | 283° |
| 2026-05-05 22:11 | 47.83162 | -120.85334 | 22113 ft | 357 kts | 283° |
| 2026-05-05 22:12 | 47.83412 | -120.89001 | 21722 ft | 355 kts | 283° |
| 2026-05-05 22:12 | 47.83660 | -120.92665 | 21332 ft | 354 kts | 282° |
| 2026-05-05 22:12 | 47.83906 | -120.96315 | 20925 ft | 354 kts | 282° |
| 2026-05-05 22:12 | 47.84149 | -120.99961 | 20507 ft | 354 kts | 282° |
| 2026-05-05 22:13 | 47.84394 | -121.03608 | 20115 ft | 354 kts | 282° |
| 2026-05-05 22:13 | 47.84633 | -121.07208 | 19726 ft | 354 kts | 281° |
| 2026-05-05 22:13 | 47.84875 | -121.10853 | 19313 ft | 353 kts | 281° |
| 2026-05-05 22:13 | 47.85113 | -121.14472 | 18896 ft | 344 kts | 281° |
| 2026-05-05 22:14 | 47.85336 | -121.17938 | 18503 ft | 333 kts | 281° |
| 2026-05-05 22:14 | 47.85559 | -121.21366 | 18082 ft | 331 kts | 281° |
| 2026-05-05 22:14 | 47.85784 | -121.24772 | 17675 ft | 329 kts | 280° |
| 2026-05-05 22:14 | 47.86003 | -121.28173 | 17259 ft | 327 kts | 280° |
| 2026-05-05 22:15 | 47.86220 | -121.31539 | 16828 ft | 327 kts | 280° |
| 2026-05-05 22:15 | 47.86436 | -121.34911 | 16378 ft | 328 kts | 280° |
| 2026-05-05 22:15 | 47.86651 | -121.38289 | 15952 ft | 327 kts | 279° |
| 2026-05-05 22:15 | 47.86863 | -121.41630 | 15531 ft | 328 kts | 279° |
| 2026-05-05 22:16 | 47.87076 | -121.45000 | 15115 ft | 327 kts | 279° |
| 2026-05-05 22:16 | 47.87289 | -121.48377 | 14722 ft | 328 kts | 279° |
| 2026-05-05 22:16 | 47.87497 | -121.51690 | 14282 ft | 312 kts | 279° |
| 2026-05-05 22:16 | 47.87701 | -121.54829 | 13899 ft | 296 kts | 278° |
| 2026-05-05 22:17 | 47.87876 | -121.57835 | 13461 ft | 290 kts | 278° |
| 2026-05-05 22:17 | 47.88059 | -121.60819 | 13119 ft | 289 kts | 278° |
| 2026-05-05 22:17 | 47.88237 | -121.63713 | 12725 ft | 275 kts | 278° |
| 2026-05-05 22:17 | 47.88414 | -121.66578 | 12366 ft | 281 kts | 278° |
| 2026-05-05 22:18 | 47.88362 | -121.69489 | 12014 ft | 288 kts | 257° |
| 2026-05-05 22:18 | 47.87375 | -121.72172 | 11723 ft | 304 kts | 229° |
| 2026-05-05 22:18 | 47.85827 | -121.74315 | 11414 ft | 306 kts | 224° |
| 2026-05-05 22:18 | 47.84221 | -121.76439 | 11080 ft | 310 kts | 224° |
| 2026-05-05 22:19 | 47.82618 | -121.78576 | 10745 ft | 309 kts | 224° |
| 2026-05-05 22:19 | 47.81046 | -121.80687 | 10424 ft | 307 kts | 224° |
| 2026-05-05 22:19 | 47.79476 | -121.82803 | 10094 ft | 296 kts | 224° |
| 2026-05-05 22:19 | 47.77997 | -121.84799 | 9740 ft | 279 kts | 225° |
| 2026-05-05 22:20 | 47.76573 | -121.86727 | 9435 ft | 278 kts | 226° |
| 2026-05-05 22:20 | 47.75426 | -121.89051 | 9140 ft | 283 kts | 250° |
| 2026-05-05 22:20 | 47.74966 | -121.91871 | 8856 ft | 279 kts | 264° |
| 2026-05-05 22:20 | 47.74722 | -121.94707 | 8622 ft | 275 kts | 265° |
| 2026-05-05 22:21 | 47.74491 | -121.97470 | 8384 ft | 261 kts | 265° |
| 2026-05-05 22:21 | 47.74272 | -122.00136 | 8016 ft | 264 kts | 265° |
| 2026-05-05 22:21 | 47.74053 | -122.02866 | 7618 ft | 267 kts | 265° |
| 2026-05-05 22:21 | 47.73836 | -122.05545 | 7220 ft | 254 kts | 265° |
| 2026-05-05 22:22 | 47.73627 | -122.08077 | 6819 ft | 239 kts | 265° |
| 2026-05-05 22:22 | 47.73430 | -122.10451 | 6420 ft | 231 kts | 265° |
| 2026-05-05 22:22 | 47.73239 | -122.12793 | 6012 ft | 227 kts | 265° |
| 2026-05-05 22:22 | 47.73045 | -122.15146 | 5652 ft | 233 kts | 265° |
| 2026-05-05 22:23 | 47.72853 | -122.17516 | 5247 ft | 224 kts | 265° |
| 2026-05-05 22:23 | 47.72670 | -122.19767 | 4833 ft | 216 kts | 265° |
| 2026-05-05 22:23 | 47.72482 | -122.21990 | 4413 ft | 218 kts | 265° |
| 2026-05-05 22:23 | 47.72301 | -122.24255 | 4069 ft | 222 kts | 264° |
| 2026-05-05 22:24 | 47.72128 | -122.26541 | 3995 ft | 220 kts | 265° |
| 2026-05-05 22:24 | 47.71958 | -122.28777 | 3996 ft | 217 kts | 265° |
| 2026-05-05 22:24 | 47.71721 | -122.31015 | 3982 ft | 221 kts | 252° |
| 2026-05-05 22:24 | 47.70844 | -122.32881 | 3996 ft | 226 kts | 218° |
| 2026-05-05 22:25 | 47.69450 | -122.33987 | 4000 ft | 229 kts | 205° |
| 2026-05-05 22:25 | 47.67907 | -122.34546 | 3977 ft | 231 kts | 175° |
| 2026-05-05 22:25 | 47.66398 | -122.33886 | 4008 ft | 230 kts | 159° |
| 2026-05-05 22:25 | 47.64866 | -122.33163 | 3990 ft | 231 kts | 166° |
| 2026-05-05 22:26 | 47.63301 | -122.32584 | 3987 ft | 231 kts | 167° |
| 2026-05-05 22:26 | 47.61737 | -122.32057 | 3970 ft | 232 kts | 168° |
| 2026-05-05 22:26 | 47.60179 | -122.31581 | 3823 ft | 221 kts | 175° |
| 2026-05-05 22:26 | 47.58731 | -122.31766 | 3541 ft | 194 kts | 208° |
| 2026-05-05 22:27 | 47.57735 | -122.33120 | 3627 ft | 205 kts | 243° |
| 2026-05-05 22:27 | 47.57442 | -122.35124 | 3649 ft | 202 kts | 273° |
| 2026-05-05 22:27 | 47.57541 | -122.37212 | 3801 ft | 209 kts | 275° |
| 2026-05-05 22:27 | 47.57646 | -122.39413 | 3908 ft | 216 kts | 275° |
| 2026-05-05 22:28 | 47.57755 | -122.41654 | 3963 ft | 218 kts | 275° |
| 2026-05-05 22:28 | 47.57867 | -122.43878 | 3988 ft | 219 kts | 276° |
| 2026-05-05 22:28 | 47.58308 | -122.46007 | 3992 ft | 221 kts | 305° |
| 2026-05-05 22:28 | 47.59475 | -122.47445 | 3993 ft | 221 kts | 338° |
| 2026-05-05 22:29 | 47.60962 | -122.47846 | 3991 ft | 218 kts | 355° |
| 2026-05-05 22:29 | 47.62491 | -122.48007 | 4001 ft | 222 kts | 355° |
| 2026-05-05 22:29 | 47.64033 | -122.48171 | 3996 ft | 222 kts | 355° |
| 2026-05-05 22:29 | 47.65576 | -122.48330 | 3993 ft | 222 kts | 354° |
| 2026-05-05 22:30 | 47.67116 | -122.48487 | 3996 ft | 221 kts | 355° |
| 2026-05-05 22:30 | 47.68651 | -122.48645 | 3981 ft | 220 kts | 354° |
| 2026-05-05 22:30 | 47.70172 | -122.48797 | 3987 ft | 218 kts | 355° |
| 2026-05-05 22:30 | 47.71690 | -122.48947 | 3977 ft | 219 kts | 355° |
| 2026-05-05 22:31 | 47.73213 | -122.49098 | 3981 ft | 219 kts | 355° |
| 2026-05-05 22:31 | 47.74713 | -122.48971 | 3976 ft | 219 kts | 18° |
| 2026-05-05 22:31 | 47.75968 | -122.47703 | 3995 ft | 227 kts | 50° |
| 2026-05-05 22:31 | 47.76581 | -122.45574 | 3982 ft | 220 kts | 81° |
| 2026-05-05 22:32 | 47.76718 | -122.43328 | 4005 ft | 223 kts | 84° |
| 2026-05-05 22:32 | 47.76829 | -122.41042 | 4034 ft | 221 kts | 84° |
| 2026-05-05 22:32 | 47.76764 | -122.38785 | 3984 ft | 218 kts | 107° |
| 2026-05-05 22:32 | 47.75947 | -122.36932 | 3993 ft | 216 kts | 139° |
| 2026-05-05 22:33 | 47.74731 | -122.35595 | 3999 ft | 219 kts | 145° |
| 2026-05-05 22:33 | 47.73482 | -122.34274 | 3999 ft | 222 kts | 144° |
| 2026-05-05 22:33 | 47.72212 | -122.32974 | 3988 ft | 220 kts | 153° |
| 2026-05-05 22:33 | 47.70637 | -122.32466 | 4010 ft | 244 kts | 178° |
| 2026-05-05 22:34 | 47.68963 | -122.32330 | 3982 ft | 230 kts | 176° |
| 2026-05-05 22:34 | 47.67444 | -122.32084 | 3967 ft | 212 kts | 174° |
| 2026-05-05 22:34 | 47.65974 | -122.31815 | 3996 ft | 215 kts | 174° |
| 2026-05-05 22:34 | 47.64484 | -122.31666 | 3929 ft | 222 kts | 179° |
| 2026-05-05 22:35 | 47.62936 | -122.31646 | 3674 ft | 220 kts | 181° |
| 2026-05-05 22:35 | 47.61446 | -122.31661 | 3422 ft | 207 kts | 181° |
| 2026-05-05 22:35 | 47.60042 | -122.31675 | 3147 ft | 196 kts | 183° |
| 2026-05-05 22:35 | 47.58735 | -122.31685 | 2906 ft | 179 kts | 182° |
| 2026-05-05 22:36 | 47.57511 | -122.31698 | 2658 ft | 173 kts | 182° |
| 2026-05-05 22:36 | 47.56358 | -122.31707 | 2430 ft | 156 kts | 182° |
| 2026-05-05 22:36 | 47.55335 | -122.31714 | 2243 ft | 139 kts | 182° |
| 2026-05-05 22:36 | 47.54395 | -122.31722 | 2054 ft | 132 kts | 182° |
| 2026-05-05 22:37 | 47.53467 | -122.31730 | 1888 ft | 134 kts | 183° |
| 2026-05-05 22:37 | 47.52541 | -122.31739 | 1715 ft | 137 kts | 182° |
| 2026-05-05 22:37 | 47.51576 | -122.31747 | 1508 ft | 140 kts | 182° |
| 2026-05-05 22:37 | 47.50606 | -122.31752 | 1328 ft | 140 kts | 181° |
| 2026-05-05 22:38 | 47.49655 | -122.31741 | 1172 ft | 138 kts | 181° |
| 2026-05-05 22:38 | 47.48739 | -122.31743 | 972 ft | 119 kts | 185° |
| 2026-05-05 22:38 | 47.47887 | -122.31759 | 772 ft | 126 kts | 184° |
| 2026-05-05 22:38 | 47.47035 | -122.31780 | 600 ft | 120 kts | 184° |
| 2026-05-05 22:39 | 47.46185 | -122.31785 | 432 ft | 124 kts | 184° |
| 2026-05-05 22:39 | 47.45501 | -122.31803 | 408 ft | 57 kts | 180° |
| 2026-05-05 22:39 | 47.45137 | -122.31802 | 398 ft | 44 kts | 180° |
| 2026-05-05 22:39 | 47.44930 | -122.31764 | 394 ft | 26 kts | 162° |
| 2026-05-05 22:40 | 47.44818 | -122.31691 | 391 ft | 15 kts | 151° |
| 2026-05-05 22:40 | 47.44728 | -122.31607 | 388 ft | 16 kts | 141° |
| 2026-05-05 22:40 | 47.44663 | -122.31478 | 391 ft | 16 kts | 112° |
| 2026-05-05 22:40 | 47.44648 | -122.31318 | 396 ft | 16 kts | 90° |
| 2026-05-05 22:41 | 47.44642 | -122.31157 | 398 ft | 16 kts | 103° |
| 2026-05-05 22:41 | 47.44601 | -122.31067 | 397 ft | 16 kts | 139° |
| 2026-05-05 22:41 | 47.44478 | -122.30960 | 395 ft | 13 kts | 151° |
| 2026-05-05 22:41 | 47.44401 | -122.30890 | 395 ft | 13 kts | 143° |
| 2026-05-05 22:42 | 47.44351 | -122.30764 | 393 ft | 15 kts | 97° |
| 2026-05-05 22:42 | 47.44340 | -122.30678 | 397 ft | 13 kts | 118° |
| 2026-05-05 22:42 | 47.44256 | -122.30635 | 391 ft | 14 kts | 178° |
| 2026-05-05 22:42 | 47.44156 | -122.30635 | 392 ft | 14 kts | 181° |
| 2026-05-05 22:43 | 47.44056 | -122.30636 | 390 ft | 14 kts | 180° |
| 2026-05-05 22:43 | 47.43955 | -122.30637 | 387 ft | 14 kts | 180° |
| 2026-05-05 22:43 | 47.43856 | -122.30639 | 384 ft | 14 kts | 181° |
| 2026-05-05 22:43 | 47.43770 | -122.30639 | 381 ft | 12 kts | 176° |
| 2026-05-05 22:44 | 47.43728 | -122.30568 | 382 ft | 7 kts | 97° |
| 2026-05-05 22:44 | 47.43723 | -122.30496 | 384 ft | 8 kts | 94° |
| 2026-05-05 22:44 | 47.43721 | -122.30414 | 385 ft | 6 kts | 91° |
| 2026-05-05 22:44 | 47.43742 | -122.30362 | 386 ft | 6 kts | 34° |
| 2026-05-05 22:45 | 47.43782 | -122.30336 | 389 ft | 6 kts | 20° |
| 2026-05-05 22:45 | 47.43798 | -122.30328 | 389 ft | 0 kts | 19° |
| 2026-05-05 22:45 | 47.43804 | -122.30325 | 389 ft | 0 kts | 18° |